createdAt,value
2018-09-23T00:01:29.960Z,49.00
2018-09-23T00:03:57.567Z,49.20
2018-09-23T00:06:25.465Z,49.40
2018-09-23T00:08:53.019Z,49.50
2018-09-23T00:11:20.656Z,50.20
2018-09-23T00:13:48.568Z,49.80
2018-09-23T00:16:16.216Z,49.90
2018-09-23T00:18:43.778Z,49.90
2018-09-23T00:21:11.873Z,50.10
2018-09-23T00:23:39.487Z,50.20
2018-09-23T00:26:07.063Z,50.20
2018-09-23T00:28:35.183Z,50.40
2018-09-23T00:31:02.692Z,50.40
2018-09-23T00:33:30.266Z,50.40
2018-09-23T00:35:58.201Z,50.50
2018-09-23T00:38:25.779Z,50.60
2018-09-23T00:40:53.340Z,50.70
2018-09-23T00:43:21.198Z,50.90
2018-09-23T00:45:48.827Z,51.00
2018-09-23T00:48:16.432Z,51.00
2018-09-23T00:50:44.392Z,51.10
2018-09-23T00:53:11.503Z,51.10
2018-09-23T00:55:39.085Z,51.20
2018-09-23T00:58:06.905Z,51.20
2018-09-23T01:00:34.434Z,51.20
2018-09-23T01:03:01.960Z,51.20
2018-09-23T01:05:29.652Z,51.20
2018-09-23T01:07:57.208Z,51.20
2018-09-23T01:10:24.791Z,51.30
2018-09-23T01:12:52.584Z,51.30
2018-09-23T01:15:20.109Z,51.30
2018-09-23T01:17:47.734Z,51.30
2018-09-23T01:20:15.323Z,51.40
2018-09-23T01:22:42.888Z,51.40
2018-09-23T01:25:10.508Z,51.40
2018-09-23T01:27:39.828Z,51.50
2018-09-23T01:30:07.400Z,51.40
2018-09-23T01:32:35.256Z,51.50
2018-09-23T01:35:03.596Z,51.60
2018-09-23T01:37:31.420Z,51.60
2018-09-23T01:39:59.016Z,51.60
2018-09-23T01:42:26.593Z,51.60
2018-09-23T01:44:54.407Z,52.20
2018-09-23T01:47:21.959Z,51.80
2018-09-23T01:49:49.496Z,51.90
2018-09-23T01:52:17.462Z,51.90
2018-09-23T01:54:45.529Z,52.00
2018-09-23T01:57:13.120Z,52.00
2018-09-23T01:59:41.281Z,52.10
2018-09-23T02:02:08.864Z,52.00
2018-09-23T02:04:36.789Z,52.10
2018-09-23T02:07:04.461Z,52.10
2018-09-23T02:09:32.082Z,52.10
2018-09-23T02:11:59.958Z,52.70
2018-09-23T02:14:27.558Z,52.30
2018-09-23T02:16:55.196Z,52.30
2018-09-23T02:19:23.242Z,52.30
2018-09-23T02:21:50.798Z,52.40
2018-09-23T02:24:18.448Z,52.50
2018-09-23T02:26:46.189Z,52.50
2018-09-23T02:29:13.718Z,52.50
2018-09-23T02:31:41.258Z,52.60
2018-09-23T02:34:09.309Z,52.60
2018-09-23T02:36:36.869Z,52.60
2018-09-23T02:39:07.088Z,52.60
2018-09-23T02:41:34.990Z,52.70
2018-09-23T02:44:02.761Z,52.70
2018-09-23T02:46:30.313Z,52.70
2018-09-23T02:48:58.276Z,52.80
2018-09-23T02:51:25.929Z,52.90
2018-09-23T02:53:53.469Z,52.90
2018-09-23T02:56:21.123Z,53.00
2018-09-23T02:58:48.688Z,53.00
2018-09-23T03:01:16.296Z,53.00
2018-09-23T03:03:44.485Z,53.10
2018-09-23T03:06:12.061Z,53.20
2018-09-23T03:08:39.665Z,53.30
2018-09-23T03:11:07.450Z,53.40
2018-09-23T03:13:35.005Z,53.50
2018-09-23T03:16:02.532Z,53.50
2018-09-23T03:18:30.491Z,53.60
2018-09-23T03:20:58.041Z,53.70
2018-09-23T03:23:25.635Z,53.80
2018-09-23T03:25:53.846Z,53.80
2018-09-23T03:28:21.385Z,53.90
2018-09-23T03:30:48.945Z,53.90
2018-09-23T03:33:16.664Z,53.90
2018-09-23T03:35:44.274Z,53.90
2018-09-23T03:38:11.808Z,53.80
2018-09-23T03:40:39.745Z,54.00
2018-09-23T03:43:07.333Z,54.00
2018-09-23T03:45:34.886Z,54.00
2018-09-23T03:48:02.700Z,54.00
2018-09-23T03:50:30.296Z,54.00
2018-09-23T03:52:58.602Z,54.00
2018-09-23T03:55:26.237Z,53.90
2018-09-23T03:57:53.929Z,54.00
2018-09-23T04:00:21.522Z,54.00
2018-09-23T04:02:49.329Z,54.00
2018-09-23T04:05:16.865Z,54.00
2018-09-23T04:07:44.467Z,54.00
2018-09-23T04:10:12.741Z,54.00
2018-09-23T04:12:40.318Z,54.00
2018-09-23T04:15:07.955Z,54.00
2018-09-23T04:17:35.561Z,54.00
2018-09-23T04:20:03.196Z,54.60
2018-09-23T04:22:36.013Z,53.90
2018-09-23T04:25:03.625Z,54.00
2018-09-23T04:27:31.194Z,54.00
2018-09-23T04:29:58.970Z,54.10
2018-09-23T04:32:26.539Z,54.10
2018-09-23T04:35:31.920Z,54.10
2018-09-23T04:37:59.558Z,54.10
2018-09-23T04:40:28.006Z,54.10
2018-09-23T04:42:55.622Z,54.10
2018-09-23T04:45:23.309Z,54.10
2018-09-23T04:47:50.892Z,54.10
2018-09-23T04:50:18.492Z,54.10
2018-09-23T04:52:46.358Z,54.10
2018-09-23T04:55:14.012Z,54.10
2018-09-23T04:57:41.161Z,54.10
2018-09-23T05:00:08.960Z,54.00
2018-09-23T05:02:36.769Z,54.00
2018-09-23T05:05:04.393Z,54.00
2018-09-23T05:07:32.113Z,54.00
2018-09-23T05:10:00.121Z,54.00
2018-09-23T05:12:27.682Z,54.00
2018-09-23T05:14:55.237Z,54.00
2018-09-23T05:17:22.850Z,53.90
2018-09-23T05:19:50.427Z,53.90
2018-09-23T05:22:18.088Z,53.90
2018-09-23T05:24:45.848Z,53.90
2018-09-23T05:27:13.493Z,54.00
2018-09-23T05:30:19.185Z,54.00
2018-09-23T05:32:46.753Z,54.00
2018-09-23T05:35:14.635Z,54.00
2018-09-23T05:37:42.436Z,54.00
2018-09-23T05:40:25.228Z,54.00
2018-09-23T05:42:53.104Z,53.90
2018-09-23T05:45:20.768Z,53.80
2018-09-23T05:47:48.424Z,53.80
2018-09-23T05:50:16.299Z,53.80
2018-09-23T05:52:43.962Z,53.80
2018-09-23T05:55:12.227Z,53.80
2018-09-23T05:57:40.953Z,53.80
2018-09-23T06:00:09.744Z,53.70
2018-09-23T06:02:37.844Z,53.70
2018-09-23T06:05:05.421Z,53.70
2018-09-23T06:07:33.057Z,53.60
2018-09-23T06:10:01.098Z,53.70
2018-09-23T06:12:28.612Z,53.70
2018-09-23T06:14:56.208Z,53.60
2018-09-23T06:17:24.074Z,53.60
2018-09-23T06:19:51.596Z,53.70
2018-09-23T06:22:19.205Z,53.70
2018-09-23T06:24:47.158Z,53.60
2018-09-23T06:27:14.788Z,53.60
2018-09-23T06:29:42.469Z,53.60
2018-09-23T06:32:10.880Z,53.60
2018-09-23T06:34:38.692Z,53.70
2018-09-23T06:37:07.330Z,53.70
2018-09-23T06:39:35.334Z,53.70
2018-09-23T06:42:02.910Z,53.80
2018-09-23T06:44:30.721Z,53.80
2018-09-23T06:46:59.057Z,53.70
2018-09-23T06:49:26.606Z,53.60
2018-09-23T06:51:54.372Z,53.40
2018-09-23T06:54:22.245Z,53.30
2018-09-23T06:56:49.887Z,53.20
2018-09-23T06:59:17.665Z,53.10
2018-09-23T07:01:45.451Z,53.20
2018-09-23T07:04:13.077Z,53.10
2018-09-23T07:06:40.639Z,53.10
2018-09-23T07:09:08.265Z,52.90
2018-09-23T07:11:36.237Z,52.80
2018-09-23T07:14:03.825Z,52.80
2018-09-23T07:16:31.419Z,52.60
2018-09-23T07:18:59.126Z,52.70
2018-09-23T07:21:26.881Z,52.50
2018-09-23T07:23:54.795Z,52.40
2018-09-23T07:26:22.437Z,52.30
2018-09-23T07:28:50.539Z,52.20
2018-09-23T07:31:18.387Z,52.10
2018-09-23T07:33:45.869Z,52.10
2018-09-23T07:36:13.721Z,52.10
2018-09-23T07:38:41.429Z,52.10
2018-09-23T07:41:09.081Z,52.00
2018-09-23T07:43:36.945Z,52.10
2018-09-23T07:46:04.530Z,52.10
2018-09-23T07:48:32.101Z,52.00
2018-09-23T07:50:59.720Z,52.10
2018-09-23T07:53:27.370Z,52.00
2018-09-23T07:55:54.988Z,52.20
2018-09-23T07:58:22.417Z,52.50
2018-09-23T08:00:50.225Z,52.60
2018-09-23T08:03:18.098Z,52.70
2018-09-23T08:05:45.675Z,52.70
2018-09-23T08:08:13.297Z,52.80
2018-09-23T08:10:41.156Z,52.80
2018-09-23T08:13:08.959Z,53.10
2018-09-23T08:15:36.488Z,53.20
2018-09-23T08:18:04.352Z,53.40
2018-09-23T08:20:31.945Z,54.00
2018-09-23T08:22:59.715Z,54.40
2018-09-23T08:25:27.756Z,54.50
2018-09-23T08:27:55.384Z,54.40
2018-09-23T08:30:23.038Z,54.00
2018-09-23T08:32:51.025Z,54.50
2018-09-23T08:35:18.586Z,54.30
2018-09-23T08:37:46.172Z,54.30
2018-09-23T08:40:14.041Z,54.40
2018-09-23T08:42:41.996Z,54.30
2018-09-23T08:45:09.656Z,54.30
2018-09-23T08:47:37.274Z,54.50
2018-09-23T08:50:04.851Z,54.10
2018-09-23T08:52:33.110Z,54.00
2018-09-23T08:55:01.141Z,54.10
2018-09-23T08:57:28.786Z,54.20
2018-09-23T08:59:56.951Z,54.20
2018-09-23T09:02:24.766Z,54.10
2018-09-23T09:04:52.378Z,54.10
2018-09-23T09:07:20.265Z,54.30
2018-09-23T09:09:48.023Z,53.60
2018-09-23T09:12:15.616Z,53.50
2018-09-23T09:14:43.457Z,53.40
2018-09-23T09:17:11.017Z,53.30
2018-09-23T09:19:38.961Z,53.10
2018-09-23T09:22:07.509Z,53.10
2018-09-23T09:24:35.111Z,53.10
2018-09-23T09:27:02.811Z,53.10
2018-09-23T09:29:30.814Z,53.10
2018-09-23T09:31:58.451Z,53.10
2018-09-23T09:34:25.980Z,53.20
2018-09-23T09:36:53.560Z,53.30
2018-09-23T09:39:21.097Z,53.40
2018-09-23T09:41:48.714Z,53.50
2018-09-23T09:44:16.382Z,53.60
2018-09-23T09:46:44.014Z,53.80
2018-09-23T09:49:11.626Z,53.90
2018-09-23T09:51:39.187Z,54.10
2018-09-23T09:54:06.852Z,54.10
2018-09-23T09:56:34.545Z,54.10
2018-09-23T09:59:02.302Z,54.10
2018-09-23T10:01:30.389Z,54.00
2018-09-23T10:03:58.321Z,53.90
2018-09-23T10:06:25.905Z,53.90
2018-09-23T10:08:53.502Z,54.00
2018-09-23T10:11:21.304Z,54.10
2018-09-23T10:13:48.896Z,54.00
2018-09-23T10:16:16.458Z,54.10
2018-09-23T10:18:44.182Z,54.10
2018-09-23T10:21:11.765Z,54.20
2018-09-23T10:23:40.186Z,54.20
2018-09-23T10:26:07.597Z,54.70
2018-09-23T10:28:35.307Z,54.00
2018-09-23T10:31:03.336Z,54.00
2018-09-23T10:33:30.813Z,54.00
2018-09-23T10:35:58.353Z,54.20
2018-09-23T10:38:26.303Z,54.30
2018-09-23T10:40:53.891Z,54.40
2018-09-23T10:43:21.717Z,54.50
2018-09-23T10:45:49.397Z,54.50
2018-09-23T10:48:17.069Z,54.60
2018-09-23T10:50:44.764Z,54.70
2018-09-23T10:53:12.828Z,54.70
2018-09-23T10:55:40.443Z,54.70
2018-09-23T10:58:08.032Z,54.80
2018-09-23T11:00:35.796Z,54.80
2018-09-23T11:03:03.879Z,54.60
2018-09-23T11:05:31.509Z,54.40
2018-09-23T11:07:59.091Z,54.30
2018-09-23T11:10:26.691Z,54.40
2018-09-23T11:12:54.581Z,54.60
2018-09-23T11:15:22.185Z,54.60
2018-09-23T11:17:49.753Z,54.70
2018-09-23T11:20:17.717Z,54.90
2018-09-23T11:22:45.367Z,55.20
2018-09-23T11:25:12.930Z,55.60
2018-09-23T11:27:40.916Z,56.00
2018-09-23T11:30:08.624Z,56.30
2018-09-23T11:32:36.548Z,56.40
2018-09-23T11:35:04.153Z,56.30
2018-09-23T11:37:31.705Z,56.20
2018-09-23T11:39:59.556Z,56.20
2018-09-23T11:42:27.109Z,56.20
2018-09-23T11:44:54.765Z,56.30
2018-09-23T11:47:22.660Z,56.50
2018-09-23T11:49:50.232Z,56.50
2018-09-23T11:52:17.861Z,56.60
2018-09-23T11:54:45.749Z,57.00
2018-09-23T11:57:13.329Z,57.20
2018-09-23T11:59:40.933Z,57.50
2018-09-23T12:02:08.545Z,57.70
2018-09-23T12:04:36.187Z,57.60
2018-09-23T12:07:03.710Z,57.60
2018-09-23T12:09:31.542Z,57.70
2018-09-23T12:11:59.188Z,57.90
2018-09-23T12:14:26.809Z,57.80
2018-09-23T12:16:54.880Z,57.80
2018-09-23T12:19:22.425Z,58.00
2018-09-23T12:21:50.004Z,58.10
2018-09-23T12:24:17.885Z,58.50
2018-09-23T12:26:45.490Z,59.00
2018-09-23T12:29:13.172Z,59.20
2018-09-23T12:31:40.924Z,59.40
2018-09-23T12:34:08.513Z,59.50
2018-09-23T12:36:36.065Z,59.60
2018-09-23T12:39:06.928Z,59.50
2018-09-23T12:41:34.511Z,60.40
2018-09-23T12:44:02.038Z,59.80
2018-09-23T12:46:29.756Z,59.80
2018-09-23T12:48:57.398Z,59.80
2018-09-23T12:51:24.997Z,60.70
2018-09-23T12:53:52.628Z,60.30
2018-09-23T12:56:20.173Z,61.40
2018-09-23T12:58:47.692Z,61.00
2018-09-23T13:01:15.722Z,60.80
2018-09-23T13:03:44.061Z,60.80
2018-09-23T13:06:11.644Z,60.70
2018-09-23T13:08:39.374Z,60.80
2018-09-23T13:11:06.890Z,61.10
2018-09-23T13:13:34.509Z,61.50
2018-09-23T13:16:02.331Z,61.80
2018-09-23T13:18:29.882Z,62.10
2018-09-23T13:20:57.504Z,62.20
2018-09-23T13:23:25.252Z,62.20
2018-09-23T13:25:52.845Z,62.50
2018-09-23T13:28:20.388Z,62.70
2018-09-23T13:30:48.142Z,63.30
2018-09-23T13:33:15.713Z,63.80
2018-09-23T13:35:43.482Z,64.20
2018-09-23T13:38:11.061Z,64.70
2018-09-23T13:40:38.661Z,64.40
2018-09-23T13:43:06.565Z,65.20
2018-09-23T13:45:34.100Z,66.40
2018-09-23T13:48:01.704Z,67.30
2018-09-23T13:50:29.350Z,68.60
2018-09-23T13:52:57.084Z,69.60
2018-09-23T13:55:24.645Z,70.80
2018-09-23T13:57:52.501Z,71.80
2018-09-23T14:00:20.029Z,72.50
2018-09-23T14:02:47.846Z,73.10
2018-09-23T14:05:15.309Z,73.90
2018-09-23T14:07:42.918Z,74.50
2018-09-23T14:10:10.540Z,75.10
2018-09-23T14:12:38.145Z,75.50
2018-09-23T14:15:05.957Z,75.90
2018-09-23T14:17:33.577Z,76.30
2018-09-23T14:20:01.144Z,76.80
2018-09-23T14:22:29.067Z,77.20
2018-09-23T14:24:56.606Z,77.60
2018-09-23T14:27:24.217Z,78.20
2018-09-23T14:29:51.961Z,78.50
2018-09-23T14:32:19.541Z,78.80
2018-09-23T14:34:47.328Z,79.00
2018-09-23T14:37:14.949Z,79.10
2018-09-23T14:39:42.609Z,79.20
2018-09-23T14:42:10.430Z,79.20
2018-09-23T14:44:38.302Z,79.20
2018-09-23T14:47:05.933Z,80.10
2018-09-23T14:49:33.509Z,79.40
2018-09-23T14:52:01.278Z,79.60
2018-09-23T14:54:29.018Z,79.80
2018-09-23T14:56:56.689Z,80.00
2018-09-23T14:59:24.481Z,80.10
2018-09-23T15:01:52.181Z,80.20
2018-09-23T15:04:20.040Z,80.60
2018-09-23T15:06:48.107Z,80.90
2018-09-23T15:09:15.272Z,81.30
2018-09-23T15:11:42.883Z,81.50
2018-09-23T15:14:10.493Z,81.80
2018-09-23T15:16:38.081Z,81.90
2018-09-23T15:19:05.977Z,82.00
2018-09-23T15:21:33.649Z,82.00
2018-09-23T15:24:01.374Z,82.00
2018-09-23T15:26:29.219Z,81.90
2018-09-23T15:28:56.837Z,81.80
2018-09-23T15:31:24.421Z,81.60
2018-09-23T15:33:52.547Z,81.30
2018-09-23T15:36:20.109Z,81.10
2018-09-23T15:38:48.297Z,81.00
2018-09-23T15:41:19.769Z,81.20
2018-09-23T15:43:57.295Z,81.20
2018-09-23T15:46:25.133Z,81.30
2018-09-23T15:49:14.501Z,81.40
2018-09-23T15:51:42.826Z,81.60
2018-09-23T15:54:10.528Z,81.60
2018-09-23T15:56:38.100Z,82.40
2018-09-23T15:59:06.343Z,81.70
2018-09-23T16:01:33.933Z,81.80
2018-09-23T16:04:01.829Z,81.90
2018-09-23T16:06:29.573Z,82.20
2018-09-23T16:08:57.189Z,82.30
2018-09-23T16:11:24.776Z,82.30
2018-09-23T16:13:52.404Z,82.10
2018-09-23T16:16:20.066Z,81.90
2018-09-23T16:18:48.041Z,81.70
2018-09-23T16:21:15.456Z,81.20
2018-09-23T16:23:43.011Z,80.70
2018-09-23T16:26:10.694Z,80.60
2018-09-23T16:28:38.257Z,80.70
2018-09-23T16:31:05.823Z,80.80
2018-09-23T16:33:33.717Z,81.00
2018-09-23T16:36:01.533Z,81.10
2018-09-23T16:38:30.269Z,81.30
2018-09-23T16:40:58.445Z,81.50
2018-09-23T16:43:26.036Z,81.70
2018-09-23T16:45:53.600Z,81.90
2018-09-23T16:48:21.722Z,81.90
2018-09-23T16:50:49.420Z,81.90
2018-09-23T16:53:16.959Z,81.90
2018-09-23T16:55:46.985Z,81.90
2018-09-23T16:58:14.644Z,82.10
2018-09-23T17:00:42.279Z,82.30
2018-09-23T17:05:37.837Z,82.20
2018-09-23T17:08:05.733Z,83.20
2018-09-23T17:10:33.531Z,83.50
2018-09-23T17:13:01.514Z,83.70
2018-09-23T17:15:29.110Z,83.90
2018-09-23T17:17:56.802Z,84.40
2018-09-23T17:20:24.697Z,85.00
2018-09-23T17:22:52.225Z,85.20
2018-09-23T17:25:19.960Z,85.40
2018-09-23T17:27:47.624Z,85.60
2018-09-23T17:30:15.199Z,85.80
2018-09-23T17:32:42.806Z,86.00
2018-09-23T17:35:10.522Z,86.30
2018-09-23T17:37:38.426Z,86.60
2018-09-23T17:40:05.973Z,86.80
2018-09-23T17:42:33.736Z,87.10
2018-09-23T17:45:01.372Z,87.90
2018-09-23T17:47:28.983Z,87.50
2018-09-23T17:49:56.857Z,87.90
2018-09-23T17:52:24.455Z,88.30
2018-09-23T17:54:52.257Z,88.40
2018-09-23T17:57:19.769Z,88.60
2018-09-23T17:59:47.310Z,88.80
2018-09-23T18:02:14.945Z,89.00
2018-09-23T18:04:42.505Z,89.00
2018-09-23T18:07:10.072Z,89.00
2018-09-23T18:09:38.256Z,88.80
2018-09-23T18:12:05.856Z,88.60
2018-09-23T18:14:33.426Z,88.50
2018-09-23T18:17:01.564Z,88.30
2018-09-23T18:19:29.170Z,88.20
2018-09-23T18:21:56.760Z,87.90
2018-09-23T18:24:24.331Z,87.80
2018-09-23T18:26:52.311Z,87.60
2018-09-23T18:29:19.876Z,87.50
2018-09-23T18:31:47.500Z,87.30
2018-09-23T18:34:15.258Z,87.20
2018-09-23T18:36:42.925Z,87.10
2018-09-23T18:39:10.500Z,86.90
2018-09-23T18:41:38.049Z,86.80
2018-09-23T18:44:05.876Z,85.90
2018-09-23T18:46:33.681Z,86.50
2018-09-23T18:49:01.358Z,86.40
2018-09-23T18:51:28.913Z,86.50
2018-09-23T18:54:02.621Z,86.50
2018-09-23T18:56:30.176Z,86.60
2018-09-23T18:58:57.862Z,86.60
2018-09-23T19:01:25.522Z,86.70
2018-09-23T19:03:53.207Z,86.90
2018-09-23T19:06:20.792Z,87.00
2018-09-23T19:08:48.701Z,87.10
2018-09-23T19:11:16.292Z,87.20
2018-09-23T19:13:50.089Z,87.10
2018-09-23T19:16:23.589Z,87.10
2018-09-23T19:18:51.669Z,87.20
2018-09-23T19:21:19.348Z,87.30
2018-09-23T19:23:47.188Z,87.50
2018-09-23T19:55:48.595Z,86.00
2018-09-23T19:58:16.292Z,86.10
2018-09-23T20:00:43.905Z,85.80
2018-09-23T20:03:11.512Z,85.30
2018-09-23T20:05:39.097Z,84.80
2018-09-23T20:08:06.733Z,84.60
2018-09-23T20:10:35.407Z,84.60
2018-09-23T20:13:03.031Z,85.00
2018-09-23T20:15:30.629Z,85.40
2018-09-23T20:17:58.328Z,86.50
2018-09-23T20:20:25.902Z,86.10
2018-09-23T20:22:53.497Z,86.50
2018-09-23T20:25:21.364Z,86.60
2018-09-23T20:27:48.969Z,86.80
2018-09-23T20:30:16.550Z,86.70
2018-09-23T20:32:44.472Z,86.70
2018-09-23T20:35:12.046Z,86.70
2018-09-23T20:37:39.667Z,86.90
2018-09-23T20:40:07.980Z,87.00
2018-09-23T20:42:35.644Z,87.10
2018-09-23T20:45:03.429Z,87.30
2018-09-23T20:47:31.474Z,87.40
2018-09-23T20:49:59.017Z,87.50
2018-09-23T20:52:26.629Z,87.60
2018-09-23T20:54:54.460Z,87.70
2018-09-23T20:57:22.001Z,87.90
2018-09-23T20:59:49.556Z,88.00
2018-09-23T21:02:17.405Z,88.10
2018-09-23T21:04:45.090Z,88.20
2018-09-23T21:07:12.659Z,88.10
2018-09-23T21:09:40.577Z,88.00
2018-09-23T21:12:08.123Z,88.00
2018-09-23T21:14:35.672Z,87.80
2018-09-23T21:17:03.914Z,87.70
2018-09-23T21:19:31.436Z,87.80
2018-09-23T21:21:59.028Z,87.70
2018-09-23T21:24:26.869Z,87.70
2018-09-23T21:26:54.425Z,87.70
2018-09-23T21:29:22.049Z,87.60
2018-09-23T21:31:49.946Z,87.40
2018-09-23T21:34:17.613Z,87.40
2018-09-23T21:36:45.168Z,87.60
2018-09-23T21:39:12.928Z,87.40
2018-09-23T21:41:40.560Z,87.50
2018-09-23T21:44:08.346Z,87.50
2018-09-23T21:46:36.401Z,87.50
2018-09-23T21:49:03.929Z,87.70
2018-09-23T21:51:31.499Z,87.70
2018-09-23T21:53:59.319Z,87.80
2018-09-23T21:56:27.144Z,87.80
2018-09-23T21:58:54.701Z,87.90
2018-09-23T22:01:22.540Z,88.10
2018-09-23T22:03:50.058Z,88.20
2018-09-23T22:06:17.637Z,88.20
2018-09-23T22:08:45.052Z,88.10
2018-09-23T22:11:12.573Z,88.10
2018-09-23T22:13:40.385Z,88.80
2018-09-23T22:16:07.941Z,88.00
2018-09-23T22:18:35.466Z,88.10
2018-09-23T22:21:03.649Z,88.20
2018-09-23T22:23:31.189Z,88.20
2018-09-23T22:25:58.719Z,88.30
2018-09-23T22:28:27.068Z,88.30
2018-09-23T22:30:54.589Z,88.90
2018-09-23T22:33:22.099Z,88.10
2018-09-23T22:35:50.188Z,88.30
2018-09-23T22:38:17.737Z,88.40
2018-09-23T22:40:50.520Z,88.40
2018-09-23T22:43:18.140Z,88.40
2018-09-23T22:45:45.688Z,88.40
2018-09-23T22:48:13.230Z,89.30
2018-09-23T22:50:40.785Z,88.60
2018-09-23T22:53:08.298Z,88.80
2018-09-23T22:55:35.846Z,88.80
2018-09-23T22:58:03.423Z,88.90
2018-09-23T23:00:30.982Z,89.00
2018-09-23T23:02:58.560Z,89.00
2018-09-23T23:05:26.183Z,89.30
2018-09-23T23:07:53.681Z,88.80
2018-09-23T23:10:21.367Z,88.70
2018-09-23T23:12:49.393Z,88.70
2018-09-23T23:15:16.916Z,88.70
2018-09-23T23:17:44.492Z,88.90
2018-09-23T23:20:12.184Z,88.90
2018-09-23T23:22:39.738Z,88.90
2018-09-23T23:25:07.313Z,88.80
2018-09-23T23:27:35.054Z,88.60
2018-09-23T23:30:02.683Z,88.50
2018-09-23T23:32:30.193Z,88.40
2018-09-23T23:34:58.172Z,88.50
2018-09-23T23:37:25.750Z,88.70
2018-09-23T23:39:53.272Z,88.70
2018-09-23T23:42:20.846Z,88.70
2018-09-23T23:44:48.420Z,88.70
2018-09-23T23:47:15.984Z,88.70
2018-09-23T23:49:43.755Z,88.80
2018-09-23T23:52:11.385Z,88.90
2018-09-23T23:54:38.950Z,88.80
2018-09-23T23:57:06.772Z,88.80
2018-09-23T23:59:34.277Z,88.80
